sensor_id;sensor_type;location;lat;lon;timestamp;P1;durP1;ratioP1;P2;durP2;ratioP2
69244;SDS011;56357;52.304;4.870;2023-01-19T00:02:21;2.15;;;0.20;;
69244;SDS011;56357;52.304;4.870;2023-01-19T00:04:48;3.03;;;0.20;;
69244;SDS011;56357;52.304;4.870;2023-01-19T00:07:15;2.05;;;0.20;;
69244;SDS011;56357;52.304;4.870;2023-01-19T00:09:41;3.00;;;0.30;;
69244;SDS011;56357;52.304;4.870;2023-01-19T00:12:08;2.65;;;0.20;;
69244;SDS011;56357;52.304;4.870;2023-01-19T00:14:35;3.28;;;0.60;;
69244;SDS011;56357;52.304;4.870;2023-01-19T00:17:01;4.57;;;0.50;;
69244;SDS011;56357;52.304;4.870;2023-01-19T00:19:28;3.10;;;0.30;;
69244;SDS011;56357;52.304;4.870;2023-01-19T00:21:54;4.60;;;0.30;;
69244;SDS011;56357;52.304;4.870;2023-01-19T00:24:21;2.55;;;0.25;;
69244;SDS011;56357;52.304;4.870;2023-01-19T00:26:47;2.17;;;0.20;;
69244;SDS011;56357;52.304;4.870;2023-01-19T00:29:14;3.08;;;0.40;;
69244;SDS011;56357;52.304;4.870;2023-01-19T00:31:40;1.65;;;0.10;;
69244;SDS011;56357;52.304;4.870;2023-01-19T00:34:07;3.33;;;0.30;;
69244;SDS011;56357;52.304;4.870;2023-01-19T00:36:33;3.03;;;0.20;;
69244;SDS011;56357;52.304;4.870;2023-01-19T00:39:00;2.00;;;0.20;;
69244;SDS011;56357;52.304;4.870;2023-01-19T00:41:26;2.65;;;0.20;;
69244;SDS011;56357;52.304;4.870;2023-01-19T00:44:07;2.33;;;0.28;;
69244;SDS011;56357;52.304;4.870;2023-01-19T00:46:33;2.40;;;0.23;;
69244;SDS011;56357;52.304;4.870;2023-01-19T00:49:00;3.28;;;0.22;;
69244;SDS011;56357;52.304;4.870;2023-01-19T00:51:26;2.40;;;0.20;;
69244;SDS011;56357;52.304;4.870;2023-01-19T00:53:53;2.70;;;0.30;;
69244;SDS011;56357;52.304;4.870;2023-01-19T00:56:19;2.28;;;0.30;;
69244;SDS011;56357;52.304;4.870;2023-01-19T00:58:45;1.83;;;0.20;;
69244;SDS011;56357;52.304;4.870;2023-01-19T01:01:12;1.63;;;0.20;;
69244;SDS011;56357;52.304;4.870;2023-01-19T01:03:39;2.97;;;0.20;;
69244;SDS011;56357;52.304;4.870;2023-01-19T01:06:05;2.80;;;0.20;;
69244;SDS011;56357;52.304;4.870;2023-01-19T01:08:32;3.72;;;0.30;;
69244;SDS011;56357;52.304;4.870;2023-01-19T01:10:59;2.07;;;0.20;;
69244;SDS011;56357;52.304;4.870;2023-01-19T01:13:26;4.38;;;0.20;;
69244;SDS011;56357;52.304;4.870;2023-01-19T01:15:53;3.22;;;0.30;;
69244;SDS011;56357;52.304;4.870;2023-01-19T01:18:20;1.95;;;0.20;;
69244;SDS011;56357;52.304;4.870;2023-01-19T01:20:47;2.15;;;0.30;;
69244;SDS011;56357;52.304;4.870;2023-01-19T01:23:14;2.00;;;0.30;;
69244;SDS011;56357;52.304;4.870;2023-01-19T01:25:46;2.42;;;0.20;;
69244;SDS011;56357;52.304;4.870;2023-01-19T01:28:13;3.45;;;0.30;;
69244;SDS011;56357;52.304;4.870;2023-01-19T01:30:39;3.05;;;0.30;;
69244;SDS011;56357;52.304;4.870;2023-01-19T01:33:07;2.67;;;0.50;;
69244;SDS011;56357;52.304;4.870;2023-01-19T01:35:35;1.37;;;0.20;;
69244;SDS011;56357;52.304;4.870;2023-01-19T01:38:02;2.15;;;0.30;;
69244;SDS011;56357;52.304;4.870;2023-01-19T01:40:28;3.20;;;0.25;;
69244;SDS011;56357;52.304;4.870;2023-01-19T01:42:55;2.95;;;0.35;;
69244;SDS011;56357;52.304;4.870;2023-01-19T01:53:59;3.97;;;0.55;;
69244;SDS011;56357;52.304;4.870;2023-01-19T01:56:37;2.50;;;0.30;;
69244;SDS011;56357;52.304;4.870;2023-01-19T01:59:07;2.92;;;0.28;;
69244;SDS011;56357;52.304;4.870;2023-01-19T02:01:38;3.37;;;0.20;;
69244;SDS011;56357;52.304;4.870;2023-01-19T02:04:22;2.50;;;0.30;;
69244;SDS011;56357;52.304;4.870;2023-01-19T02:06:49;1.52;;;0.20;;
69244;SDS011;56357;52.304;4.870;2023-01-19T02:09:33;4.32;;;0.20;;
69244;SDS011;56357;52.304;4.870;2023-01-19T02:12:20;2.45;;;0.30;;
69244;SDS011;56357;52.304;4.870;2023-01-19T02:15:05;2.53;;;0.23;;
69244;SDS011;56357;52.304;4.870;2023-01-19T02:17:39;2.45;;;0.20;;
69244;SDS011;56357;52.304;4.870;2023-01-19T02:20:06;2.75;;;0.20;;
69244;SDS011;56357;52.304;4.870;2023-01-19T02:22:34;3.22;;;0.30;;
69244;SDS011;56357;52.304;4.870;2023-01-19T02:25:09;2.10;;;0.22;;
69244;SDS011;56357;52.304;4.870;2023-01-19T02:27:36;1.60;;;0.20;;
69244;SDS011;56357;52.304;4.870;2023-01-19T02:30:03;1.90;;;0.20;;
69244;SDS011;56357;52.304;4.870;2023-01-19T02:32:30;2.38;;;0.40;;
69244;SDS011;56357;52.304;4.870;2023-01-19T02:34:56;2.35;;;0.30;;
69244;SDS011;56357;52.304;4.870;2023-01-19T02:37:23;3.40;;;0.20;;
69244;SDS011;56357;52.304;4.870;2023-01-19T02:39:52;2.90;;;0.30;;
69244;SDS011;56357;52.304;4.870;2023-01-19T02:42:28;2.53;;;0.20;;
69244;SDS011;56357;52.304;4.870;2023-01-19T02:45:00;3.67;;;0.20;;
69244;SDS011;56357;52.304;4.870;2023-01-19T02:47:36;3.05;;;0.30;;
69244;SDS011;56357;52.304;4.870;2023-01-19T02:50:04;4.00;;;0.73;;
69244;SDS011;56357;52.304;4.870;2023-01-19T02:52:31;2.50;;;0.23;;
69244;SDS011;56357;52.304;4.870;2023-01-19T03:05:41;3.13;;;0.23;;
69244;SDS011;56357;52.304;4.870;2023-01-19T03:08:25;1.70;;;0.20;;
69244;SDS011;56357;52.304;4.870;2023-01-19T03:13:42;1.98;;;0.20;;
69244;SDS011;56357;52.304;4.870;2023-01-19T03:19:25;2.23;;;0.30;;
69244;SDS011;56357;52.304;4.870;2023-01-19T03:21:58;2.10;;;0.20;;
69244;SDS011;56357;52.304;4.870;2023-01-19T03:24:29;2.10;;;0.20;;
69244;SDS011;56357;52.304;4.870;2023-01-19T03:27:00;3.67;;;0.30;;
69244;SDS011;56357;52.304;4.870;2023-01-19T03:29:31;3.38;;;0.30;;
69244;SDS011;56357;52.304;4.870;2023-01-19T03:32:02;2.33;;;0.40;;
69244;SDS011;56357;52.304;4.870;2023-01-19T03:34:34;2.63;;;0.20;;
69244;SDS011;56357;52.304;4.870;2023-01-19T03:37:02;3.85;;;0.30;;
69244;SDS011;56357;52.304;4.870;2023-01-19T03:39:30;2.70;;;0.22;;
69244;SDS011;56357;52.304;4.870;2023-01-19T03:41:57;2.28;;;0.20;;
69244;SDS011;56357;52.304;4.870;2023-01-19T03:44:28;2.83;;;0.30;;
69244;SDS011;56357;52.304;4.870;2023-01-19T03:46:57;1.67;;;0.20;;
69244;SDS011;56357;52.304;4.870;2023-01-19T03:49:24;2.55;;;0.50;;
69244;SDS011;56357;52.304;4.870;2023-01-19T03:51:53;3.53;;;0.40;;
69244;SDS011;56357;52.304;4.870;2023-01-19T03:54:21;3.03;;;0.20;;
69244;SDS011;56357;52.304;4.870;2023-01-19T03:56:47;2.53;;;0.20;;
69244;SDS011;56357;52.304;4.870;2023-01-19T03:59:14;4.75;;;0.85;;
69244;SDS011;56357;52.304;4.870;2023-01-19T04:01:41;2.35;;;0.20;;
69244;SDS011;56357;52.304;4.870;2023-01-19T04:04:07;3.30;;;0.40;;
69244;SDS011;56357;52.304;4.870;2023-01-19T04:06:34;4.20;;;0.30;;
69244;SDS011;56357;52.304;4.870;2023-01-19T04:09:01;3.93;;;0.30;;
69244;SDS011;56357;52.304;4.870;2023-01-19T04:11:28;3.13;;;0.20;;
69244;SDS011;56357;52.304;4.870;2023-01-19T04:13:54;3.42;;;0.30;;
69244;SDS011;56357;52.304;4.870;2023-01-19T04:16:21;2.97;;;0.40;;
69244;SDS011;56357;52.304;4.870;2023-01-19T04:18:48;3.75;;;0.20;;
69244;SDS011;56357;52.304;4.870;2023-01-19T04:21:16;3.03;;;0.30;;
69244;SDS011;56357;52.304;4.870;2023-01-19T04:23:44;4.00;;;0.63;;
69244;SDS011;56357;52.304;4.870;2023-01-19T04:26:11;2.50;;;0.65;;
69244;SDS011;56357;52.304;4.870;2023-01-19T04:28:38;4.57;;;0.30;;
69244;SDS011;56357;52.304;4.870;2023-01-19T04:31:04;4.28;;;0.30;;
69244;SDS011;56357;52.304;4.870;2023-01-19T04:33:33;6.63;;;0.50;;
69244;SDS011;56357;52.304;4.870;2023-01-19T04:35:59;4.45;;;0.68;;
69244;SDS011;56357;52.304;4.870;2023-01-19T04:38:28;3.35;;;0.20;;
69244;SDS011;56357;52.304;4.870;2023-01-19T04:40:54;7.65;;;0.40;;
69244;SDS011;56357;52.304;4.870;2023-01-19T04:43:21;4.07;;;0.50;;
69244;SDS011;56357;52.304;4.870;2023-01-19T04:45:48;4.00;;;0.40;;
69244;SDS011;56357;52.304;4.870;2023-01-19T04:48:15;5.82;;;0.40;;
69244;SDS011;56357;52.304;4.870;2023-01-19T04:50:43;3.90;;;0.40;;
69244;SDS011;56357;52.304;4.870;2023-01-19T04:53:09;4.00;;;0.63;;
69244;SDS011;56357;52.304;4.870;2023-01-19T04:55:37;4.78;;;0.50;;
69244;SDS011;56357;52.304;4.870;2023-01-19T04:58:04;3.17;;;0.30;;
69244;SDS011;56357;52.304;4.870;2023-01-19T05:00:30;2.60;;;0.30;;
69244;SDS011;56357;52.304;4.870;2023-01-19T05:02:57;4.18;;;0.40;;
69244;SDS011;56357;52.304;4.870;2023-01-19T05:05:25;4.65;;;0.30;;
69244;SDS011;56357;52.304;4.870;2023-01-19T05:07:51;2.90;;;0.20;;
69244;SDS011;56357;52.304;4.870;2023-01-19T05:10:18;6.17;;;0.40;;
69244;SDS011;56357;52.304;4.870;2023-01-19T05:12:45;2.40;;;0.20;;
69244;SDS011;56357;52.304;4.870;2023-01-19T05:15:11;3.28;;;0.30;;
69244;SDS011;56357;52.304;4.870;2023-01-19T05:17:38;3.00;;;0.30;;
69244;SDS011;56357;52.304;4.870;2023-01-19T05:20:05;3.13;;;0.30;;
69244;SDS011;56357;52.304;4.870;2023-01-19T05:22:32;3.70;;;0.40;;
69244;SDS011;56357;52.304;4.870;2023-01-19T05:24:58;2.65;;;0.20;;
69244;SDS011;56357;52.304;4.870;2023-01-19T05:27:25;4.47;;;0.30;;
69244;SDS011;56357;52.304;4.870;2023-01-19T05:29:52;3.13;;;0.30;;
69244;SDS011;56357;52.304;4.870;2023-01-19T05:32:18;5.55;;;0.40;;
69244;SDS011;56357;52.304;4.870;2023-01-19T05:34:45;4.87;;;0.30;;
69244;SDS011;56357;52.304;4.870;2023-01-19T05:37:11;5.28;;;0.40;;
69244;SDS011;56357;52.304;4.870;2023-01-19T05:39:38;5.90;;;0.60;;
69244;SDS011;56357;52.304;4.870;2023-01-19T05:42:04;3.13;;;0.70;;
69244;SDS011;56357;52.304;4.870;2023-01-19T05:44:30;4.50;;;0.32;;
69244;SDS011;56357;52.304;4.870;2023-01-19T05:46:57;4.97;;;0.50;;
69244;SDS011;56357;52.304;4.870;2023-01-19T05:49:23;3.28;;;0.32;;
69244;SDS011;56357;52.304;4.870;2023-01-19T05:51:50;3.40;;;0.35;;
69244;SDS011;56357;52.304;4.870;2023-01-19T05:54:16;6.50;;;0.73;;
69244;SDS011;56357;52.304;4.870;2023-01-19T05:56:43;4.15;;;0.40;;
69244;SDS011;56357;52.304;4.870;2023-01-19T05:59:09;4.17;;;0.50;;
69244;SDS011;56357;52.304;4.870;2023-01-19T06:01:36;3.00;;;0.25;;
69244;SDS011;56357;52.304;4.870;2023-01-19T06:04:03;7.35;;;0.52;;
69244;SDS011;56357;52.304;4.870;2023-01-19T06:06:30;5.63;;;0.57;;
69244;SDS011;56357;52.304;4.870;2023-01-19T06:08:56;12.15;;;1.38;;
69244;SDS011;56357;52.304;4.870;2023-01-19T06:11:23;4.07;;;0.53;;
69244;SDS011;56357;52.304;4.870;2023-01-19T06:13:50;8.32;;;0.50;;
69244;SDS011;56357;52.304;4.870;2023-01-19T06:16:17;8.25;;;1.08;;
69244;SDS011;56357;52.304;4.870;2023-01-19T06:18:43;5.40;;;0.38;;
69244;SDS011;56357;52.304;4.870;2023-01-19T06:21:09;7.63;;;0.70;;
69244;SDS011;56357;52.304;4.870;2023-01-19T06:23:38;7.70;;;0.50;;
69244;SDS011;56357;52.304;4.870;2023-01-19T06:26:05;6.13;;;0.60;;
69244;SDS011;56357;52.304;4.870;2023-01-19T06:28:31;6.40;;;0.40;;
69244;SDS011;56357;52.304;4.870;2023-01-19T06:30:57;5.43;;;0.45;;
69244;SDS011;56357;52.304;4.870;2023-01-19T06:33:24;12.18;;;0.80;;
69244;SDS011;56357;52.304;4.870;2023-01-19T06:35:51;12.77;;;1.13;;
69244;SDS011;56357;52.304;4.870;2023-01-19T06:38:18;6.03;;;0.70;;
69244;SDS011;56357;52.304;4.870;2023-01-19T06:40:45;4.75;;;0.60;;
69244;SDS011;56357;52.304;4.870;2023-01-19T06:43:17;7.03;;;0.80;;
69244;SDS011;56357;52.304;4.870;2023-01-19T06:45:45;9.30;;;0.65;;
69244;SDS011;56357;52.304;4.870;2023-01-19T06:48:11;10.43;;;0.70;;
69244;SDS011;56357;52.304;4.870;2023-01-19T06:50:39;7.20;;;0.85;;
69244;SDS011;56357;52.304;4.870;2023-01-19T06:53:05;7.00;;;0.40;;
69244;SDS011;56357;52.304;4.870;2023-01-19T06:55:32;8.93;;;0.50;;
69244;SDS011;56357;52.304;4.870;2023-01-19T06:58:00;9.30;;;0.52;;
69244;SDS011;56357;52.304;4.870;2023-01-19T07:00:27;5.50;;;0.53;;
69244;SDS011;56357;52.304;4.870;2023-01-19T07:02:54;8.63;;;0.60;;
69244;SDS011;56357;52.304;4.870;2023-01-19T07:05:20;6.50;;;0.68;;
69244;SDS011;56357;52.304;4.870;2023-01-19T07:07:53;8.63;;;1.00;;
69244;SDS011;56357;52.304;4.870;2023-01-19T07:10:21;8.07;;;0.88;;
69244;SDS011;56357;52.304;4.870;2023-01-19T07:12:48;8.17;;;0.93;;
69244;SDS011;56357;52.304;4.870;2023-01-19T07:15:15;9.27;;;0.80;;
69244;SDS011;56357;52.304;4.870;2023-01-19T07:17:44;13.60;;;0.65;;
69244;SDS011;56357;52.304;4.870;2023-01-19T07:20:11;9.52;;;0.73;;
69244;SDS011;56357;52.304;4.870;2023-01-19T07:22:39;12.57;;;0.90;;
69244;SDS011;56357;52.304;4.870;2023-01-19T07:25:09;7.40;;;0.83;;
69244;SDS011;56357;52.304;4.870;2023-01-19T07:27:39;8.82;;;1.13;;
69244;SDS011;56357;52.304;4.870;2023-01-19T07:30:06;7.30;;;0.60;;
69244;SDS011;56357;52.304;4.870;2023-01-19T07:32:33;8.80;;;0.73;;
69244;SDS011;56357;52.304;4.870;2023-01-19T07:35:02;8.77;;;0.70;;
69244;SDS011;56357;52.304;4.870;2023-01-19T07:37:29;5.83;;;0.50;;
69244;SDS011;56357;52.304;4.870;2023-01-19T07:39:55;7.97;;;0.95;;
69244;SDS011;56357;52.304;4.870;2023-01-19T07:42:22;10.98;;;0.47;;
69244;SDS011;56357;52.304;4.870;2023-01-19T07:44:48;10.73;;;0.98;;
69244;SDS011;56357;52.304;4.870;2023-01-19T07:47:14;9.18;;;0.90;;
69244;SDS011;56357;52.304;4.870;2023-01-19T07:49:41;13.53;;;0.80;;
69244;SDS011;56357;52.304;4.870;2023-01-19T07:52:07;6.70;;;0.60;;
69244;SDS011;56357;52.304;4.870;2023-01-19T07:54:34;9.93;;;1.38;;
69244;SDS011;56357;52.304;4.870;2023-01-19T07:57:01;5.68;;;0.52;;
69244;SDS011;56357;52.304;4.870;2023-01-19T07:59:27;9.73;;;1.13;;
69244;SDS011;56357;52.304;4.870;2023-01-19T08:01:54;9.40;;;0.97;;
69244;SDS011;56357;52.304;4.870;2023-01-19T08:04:23;8.27;;;0.68;;
69244;SDS011;56357;52.304;4.870;2023-01-19T08:06:50;7.40;;;0.60;;
69244;SDS011;56357;52.304;4.870;2023-01-19T08:09:16;6.97;;;0.80;;
69244;SDS011;56357;52.304;4.870;2023-01-19T08:11:43;5.38;;;0.50;;
69244;SDS011;56357;52.304;4.870;2023-01-19T08:14:09;8.50;;;0.60;;
69244;SDS011;56357;52.304;4.870;2023-01-19T08:16:36;5.55;;;0.88;;
69244;SDS011;56357;52.304;4.870;2023-01-19T08:19:02;7.72;;;0.75;;
69244;SDS011;56357;52.304;4.870;2023-01-19T08:21:29;4.85;;;0.50;;
69244;SDS011;56357;52.304;4.870;2023-01-19T08:23:57;7.32;;;0.75;;
69244;SDS011;56357;52.304;4.870;2023-01-19T08:26:30;5.60;;;0.57;;
69244;SDS011;56357;52.304;4.870;2023-01-19T08:28:59;6.93;;;0.73;;
69244;SDS011;56357;52.304;4.870;2023-01-19T08:31:28;4.35;;;0.55;;
69244;SDS011;56357;52.304;4.870;2023-01-19T08:33:55;6.15;;;0.70;;
69244;SDS011;56357;52.304;4.870;2023-01-19T08:36:21;7.03;;;0.50;;
69244;SDS011;56357;52.304;4.870;2023-01-19T08:38:49;7.23;;;0.50;;
69244;SDS011;56357;52.304;4.870;2023-01-19T08:41:15;7.88;;;0.63;;
69244;SDS011;56357;52.304;4.870;2023-01-19T08:43:41;7.30;;;0.40;;
69244;SDS011;56357;52.304;4.870;2023-01-19T08:46:08;5.35;;;0.55;;
69244;SDS011;56357;52.304;4.870;2023-01-19T08:48:35;6.97;;;0.70;;
69244;SDS011;56357;52.304;4.870;2023-01-19T08:51:01;7.97;;;0.60;;
69244;SDS011;56357;52.304;4.870;2023-01-19T08:53:28;5.70;;;0.77;;
69244;SDS011;56357;52.304;4.870;2023-01-19T08:55:55;7.38;;;0.55;;
69244;SDS011;56357;52.304;4.870;2023-01-19T08:58:23;6.82;;;0.68;;
69244;SDS011;56357;52.304;4.870;2023-01-19T09:00:50;6.90;;;0.90;;
69244;SDS011;56357;52.304;4.870;2023-01-19T09:03:16;4.97;;;0.50;;
69244;SDS011;56357;52.304;4.870;2023-01-19T09:05:44;6.07;;;0.60;;
69244;SDS011;56357;52.304;4.870;2023-01-19T09:08:12;5.72;;;0.47;;
69244;SDS011;56357;52.304;4.870;2023-01-19T09:10:43;4.22;;;0.40;;
69244;SDS011;56357;52.304;4.870;2023-01-19T09:13:15;6.93;;;0.45;;
69244;SDS011;56357;52.304;4.870;2023-01-19T09:15:42;6.73;;;0.70;;
69244;SDS011;56357;52.304;4.870;2023-01-19T09:18:11;4.47;;;0.60;;
69244;SDS011;56357;52.304;4.870;2023-01-19T09:20:39;4.65;;;0.50;;
69244;SDS011;56357;52.304;4.870;2023-01-19T09:23:10;4.93;;;0.77;;
69244;SDS011;56357;52.304;4.870;2023-01-19T09:25:38;3.75;;;0.35;;
69244;SDS011;56357;52.304;4.870;2023-01-19T09:28:06;4.87;;;0.40;;
69244;SDS011;56357;52.304;4.870;2023-01-19T09:30:34;5.43;;;0.77;;
69244;SDS011;56357;52.304;4.870;2023-01-19T09:33:03;6.25;;;0.50;;
69244;SDS011;56357;52.304;4.870;2023-01-19T09:35:34;7.55;;;0.60;;
69244;SDS011;56357;52.304;4.870;2023-01-19T09:38:02;3.95;;;0.57;;
69244;SDS011;56357;52.304;4.870;2023-01-19T09:40:29;5.33;;;0.57;;
69244;SDS011;56357;52.304;4.870;2023-01-19T09:42:56;6.82;;;0.70;;
69244;SDS011;56357;52.304;4.870;2023-01-19T09:45:38;5.40;;;0.50;;
69244;SDS011;56357;52.304;4.870;2023-01-19T09:56:19;5.43;;;0.40;;
69244;SDS011;56357;52.304;4.870;2023-01-19T09:58:47;3.45;;;0.30;;
69244;SDS011;56357;52.304;4.870;2023-01-19T10:01:21;3.78;;;0.45;;
69244;SDS011;56357;52.304;4.870;2023-01-19T10:04:05;2.30;;;0.30;;
69244;SDS011;56357;52.304;4.870;2023-01-19T10:06:36;3.83;;;0.40;;
69244;SDS011;56357;52.304;4.870;2023-01-19T10:09:05;6.90;;;0.90;;
69244;SDS011;56357;52.304;4.870;2023-01-19T10:11:41;4.22;;;0.50;;
69244;SDS011;56357;52.304;4.870;2023-01-19T10:14:18;4.43;;;0.40;;
69244;SDS011;56357;52.304;4.870;2023-01-19T10:16:52;3.45;;;0.40;;
69244;SDS011;56357;52.304;4.870;2023-01-19T10:19:29;5.77;;;0.50;;
69244;SDS011;56357;52.304;4.870;2023-01-19T10:22:21;5.72;;;0.47;;
69244;SDS011;56357;52.304;4.870;2023-01-19T10:24:53;5.78;;;0.50;;
69244;SDS011;56357;52.304;4.870;2023-01-19T10:27:23;7.20;;;0.77;;
69244;SDS011;56357;52.304;4.870;2023-01-19T10:29:52;3.67;;;0.40;;
69244;SDS011;56357;52.304;4.870;2023-01-19T10:32:20;3.20;;;0.30;;
69244;SDS011;56357;52.304;4.870;2023-01-19T10:34:51;5.20;;;0.70;;
69244;SDS011;56357;52.304;4.870;2023-01-19T10:37:28;4.28;;;0.40;;
69244;SDS011;56357;52.304;4.870;2023-01-19T10:40:01;6.60;;;1.17;;
69244;SDS011;56357;52.304;4.870;2023-01-19T10:42:44;5.18;;;0.75;;
69244;SDS011;56357;52.304;4.870;2023-01-19T10:45:18;3.50;;;0.50;;
69244;SDS011;56357;52.304;4.870;2023-01-19T10:47:48;5.03;;;0.50;;
69244;SDS011;56357;52.304;4.870;2023-01-19T10:52:55;5.15;;;0.52;;
69244;SDS011;56357;52.304;4.870;2023-01-19T10:55:24;4.05;;;0.40;;
69244;SDS011;56357;52.304;4.870;2023-01-19T10:57:51;2.97;;;0.40;;
69244;SDS011;56357;52.304;4.870;2023-01-19T11:03:02;3.78;;;0.38;;
69244;SDS011;56357;52.304;4.870;2023-01-19T11:05:31;3.45;;;0.43;;
69244;SDS011;56357;52.304;4.870;2023-01-19T11:07:59;5.35;;;0.45;;
69244;SDS011;56357;52.304;4.870;2023-01-19T11:10:26;5.83;;;0.60;;
69244;SDS011;56357;52.304;4.870;2023-01-19T11:12:55;4.57;;;0.50;;
69244;SDS011;56357;52.304;4.870;2023-01-19T11:15:41;5.20;;;0.40;;
69244;SDS011;56357;52.304;4.870;2023-01-19T11:20:56;3.35;;;0.30;;
69244;SDS011;56357;52.304;4.870;2023-01-19T11:23:32;4.50;;;0.40;;
69244;SDS011;56357;52.304;4.870;2023-01-19T11:26:23;4.03;;;0.50;;
69244;SDS011;56357;52.304;4.870;2023-01-19T11:28:49;6.18;;;0.43;;
69244;SDS011;56357;52.304;4.870;2023-01-19T11:31:40;3.13;;;0.40;;
69244;SDS011;56357;52.304;4.870;2023-01-19T11:36:59;4.87;;;0.50;;
69244;SDS011;56357;52.304;4.870;2023-01-19T11:39:46;5.78;;;0.60;;
69244;SDS011;56357;52.304;4.870;2023-01-19T11:42:13;6.75;;;0.60;;
69244;SDS011;56357;52.304;4.870;2023-01-19T11:44:43;4.53;;;0.50;;
69244;SDS011;56357;52.304;4.870;2023-01-19T11:47:19;5.10;;;0.50;;
69244;SDS011;56357;52.304;4.870;2023-01-19T11:49:59;3.67;;;0.40;;
69244;SDS011;56357;52.304;4.870;2023-01-19T11:52:33;4.70;;;0.47;;
69244;SDS011;56357;52.304;4.870;2023-01-19T11:55:12;4.95;;;0.50;;
69244;SDS011;56357;52.304;4.870;2023-01-19T11:57:43;6.32;;;0.60;;
69244;SDS011;56357;52.304;4.870;2023-01-19T12:00:23;4.72;;;0.60;;
69244;SDS011;56357;52.304;4.870;2023-01-19T12:02:52;6.97;;;0.50;;
69244;SDS011;56357;52.304;4.870;2023-01-19T12:05:23;4.88;;;0.70;;
69244;SDS011;56357;52.304;4.870;2023-01-19T12:07:57;4.53;;;0.50;;
69244;SDS011;56357;52.304;4.870;2023-01-19T12:10:29;5.57;;;0.60;;
69244;SDS011;56357;52.304;4.870;2023-01-19T12:12:59;5.13;;;0.57;;
69244;SDS011;56357;52.304;4.870;2023-01-19T12:18:09;4.03;;;0.50;;
69244;SDS011;56357;52.304;4.870;2023-01-19T12:20:51;3.50;;;0.40;;
69244;SDS011;56357;52.304;4.870;2023-01-19T12:26:25;4.65;;;0.40;;
69244;SDS011;56357;52.304;4.870;2023-01-19T12:28:55;4.83;;;0.60;;
69244;SDS011;56357;52.304;4.870;2023-01-19T12:31:25;3.92;;;0.45;;
69244;SDS011;56357;52.304;4.870;2023-01-19T12:33:52;4.47;;;0.60;;
69244;SDS011;56357;52.304;4.870;2023-01-19T12:39:02;3.67;;;0.45;;
69244;SDS011;56357;52.304;4.870;2023-01-19T12:46:34;4.07;;;0.60;;
69244;SDS011;56357;52.304;4.870;2023-01-19T12:51:46;3.67;;;0.52;;
69244;SDS011;56357;52.304;4.870;2023-01-19T12:54:19;4.10;;;0.50;;
69244;SDS011;56357;52.304;4.870;2023-01-19T12:57:05;6.13;;;0.30;;
69244;SDS011;56357;52.304;4.870;2023-01-19T12:59:42;3.55;;;0.30;;
69244;SDS011;56357;52.304;4.870;2023-01-19T13:15:55;5.35;;;0.60;;
69244;SDS011;56357;52.304;4.870;2023-01-19T13:21:12;4.53;;;0.47;;
69244;SDS011;56357;52.304;4.870;2023-01-19T13:23:52;2.53;;;0.30;;
69244;SDS011;56357;52.304;4.870;2023-01-19T13:26:26;3.42;;;0.63;;
69244;SDS011;56357;52.304;4.870;2023-01-19T13:28:56;2.90;;;0.60;;
69244;SDS011;56357;52.304;4.870;2023-01-19T13:31:43;3.55;;;0.40;;
69244;SDS011;56357;52.304;4.870;2023-01-19T13:34:17;3.57;;;0.37;;
69244;SDS011;56357;52.304;4.870;2023-01-19T13:36:48;3.10;;;0.40;;
69244;SDS011;56357;52.304;4.870;2023-01-19T13:39:27;4.13;;;0.40;;
69244;SDS011;56357;52.304;4.870;2023-01-19T13:42:00;3.78;;;0.32;;
69244;SDS011;56357;52.304;4.870;2023-01-19T13:44:40;3.80;;;0.50;;
69244;SDS011;56357;52.304;4.870;2023-01-19T13:47:17;4.07;;;0.47;;
69244;SDS011;56357;52.304;4.870;2023-01-19T13:49:51;3.78;;;0.50;;
69244;SDS011;56357;52.304;4.870;2023-01-19T13:52:23;3.38;;;0.63;;
69244;SDS011;56357;52.304;4.870;2023-01-19T13:54:56;4.32;;;0.50;;
69244;SDS011;56357;52.304;4.870;2023-01-19T13:57:37;3.58;;;0.65;;
69244;SDS011;56357;52.304;4.870;2023-01-19T14:05:38;3.17;;;0.68;;
69244;SDS011;56357;52.304;4.870;2023-01-19T14:10:37;4.70;;;0.40;;
69244;SDS011;56357;52.304;4.870;2023-01-19T14:15:51;3.78;;;0.38;;
69244;SDS011;56357;52.304;4.870;2023-01-19T14:18:22;3.10;;;0.43;;
69244;SDS011;56357;52.304;4.870;2023-01-19T14:23:36;2.30;;;0.40;;
69244;SDS011;56357;52.304;4.870;2023-01-19T14:29:25;3.33;;;0.30;;
69244;SDS011;56357;52.304;4.870;2023-01-19T14:37:22;3.30;;;0.30;;
69244;SDS011;56357;52.304;4.870;2023-01-19T14:42:42;3.13;;;0.40;;
69244;SDS011;56357;52.304;4.870;2023-01-19T14:45:16;2.90;;;0.30;;
69244;SDS011;56357;52.304;4.870;2023-01-19T14:47:45;2.85;;;0.30;;
69244;SDS011;56357;52.304;4.870;2023-01-19T14:50:32;2.33;;;0.30;;
69244;SDS011;56357;52.304;4.870;2023-01-19T14:53:11;3.40;;;0.60;;
69244;SDS011;56357;52.304;4.870;2023-01-19T14:55:46;2.45;;;0.30;;
69244;SDS011;56357;52.304;4.870;2023-01-19T14:58:17;4.22;;;0.40;;
69244;SDS011;56357;52.304;4.870;2023-01-19T15:00:45;4.55;;;0.50;;
69244;SDS011;56357;52.304;4.870;2023-01-19T15:03:12;3.38;;;0.70;;
69244;SDS011;56357;52.304;4.870;2023-01-19T15:05:40;2.13;;;0.30;;
69244;SDS011;56357;52.304;4.870;2023-01-19T15:08:19;2.35;;;0.20;;
69244;SDS011;56357;52.304;4.870;2023-01-19T15:10:51;3.50;;;0.30;;
69244;SDS011;56357;52.304;4.870;2023-01-19T15:13:18;4.35;;;0.55;;
69244;SDS011;56357;52.304;4.870;2023-01-19T15:15:50;2.92;;;0.40;;
69244;SDS011;56357;52.304;4.870;2023-01-19T15:18:24;2.57;;;0.30;;
69244;SDS011;56357;52.304;4.870;2023-01-19T15:20:52;3.70;;;0.30;;
69244;SDS011;56357;52.304;4.870;2023-01-19T15:23:26;4.07;;;0.30;;
69244;SDS011;56357;52.304;4.870;2023-01-19T15:25:57;3.03;;;0.50;;
69244;SDS011;56357;52.304;4.870;2023-01-19T15:28:28;3.20;;;0.50;;
69244;SDS011;56357;52.304;4.870;2023-01-19T15:30:55;4.27;;;0.60;;
69244;SDS011;56357;52.304;4.870;2023-01-19T15:33:25;3.25;;;0.40;;
69244;SDS011;56357;52.304;4.870;2023-01-19T15:35:54;2.88;;;0.30;;
69244;SDS011;56357;52.304;4.870;2023-01-19T15:38:21;4.97;;;0.50;;
69244;SDS011;56357;52.304;4.870;2023-01-19T15:40:48;5.25;;;0.45;;
69244;SDS011;56357;52.304;4.870;2023-01-19T15:43:15;3.57;;;0.40;;
69244;SDS011;56357;52.304;4.870;2023-01-19T15:45:43;3.53;;;0.30;;
69244;SDS011;56357;52.304;4.870;2023-01-19T15:48:14;4.18;;;0.45;;
69244;SDS011;56357;52.304;4.870;2023-01-19T15:50:42;5.53;;;0.40;;
69244;SDS011;56357;52.304;4.870;2023-01-19T15:53:11;3.03;;;0.40;;
69244;SDS011;56357;52.304;4.870;2023-01-19T15:55:40;2.87;;;0.40;;
69244;SDS011;56357;52.304;4.870;2023-01-19T15:58:07;9.35;;;0.52;;
69244;SDS011;56357;52.304;4.870;2023-01-19T16:00:33;3.00;;;0.57;;
69244;SDS011;56357;52.304;4.870;2023-01-19T16:03:01;6.60;;;0.73;;
69244;SDS011;56357;52.304;4.870;2023-01-19T16:05:28;7.95;;;0.60;;
69244;SDS011;56357;52.304;4.870;2023-01-19T16:07:55;3.90;;;0.30;;
69244;SDS011;56357;52.304;4.870;2023-01-19T16:10:21;4.13;;;0.43;;
69244;SDS011;56357;52.304;4.870;2023-01-19T16:12:47;4.78;;;0.70;;
69244;SDS011;56357;52.304;4.870;2023-01-19T16:15:14;8.02;;;0.63;;
69244;SDS011;56357;52.304;4.870;2023-01-19T16:17:42;6.10;;;0.50;;
69244;SDS011;56357;52.304;4.870;2023-01-19T16:20:09;4.30;;;0.40;;
69244;SDS011;56357;52.304;4.870;2023-01-19T16:22:36;5.43;;;0.40;;
69244;SDS011;56357;52.304;4.870;2023-01-19T16:25:03;5.57;;;0.60;;
69244;SDS011;56357;52.304;4.870;2023-01-19T16:27:30;4.70;;;0.45;;
69244;SDS011;56357;52.304;4.870;2023-01-19T16:29:56;7.20;;;0.40;;
69244;SDS011;56357;52.304;4.870;2023-01-19T16:32:28;4.93;;;0.53;;
69244;SDS011;56357;52.304;4.870;2023-01-19T16:34:55;5.38;;;0.52;;
69244;SDS011;56357;52.304;4.870;2023-01-19T16:37:21;6.47;;;0.60;;
69244;SDS011;56357;52.304;4.870;2023-01-19T16:39:48;11.63;;;1.00;;
69244;SDS011;56357;52.304;4.870;2023-01-19T16:42:15;12.30;;;0.70;;
69244;SDS011;56357;52.304;4.870;2023-01-19T16:44:42;6.43;;;0.60;;